createdAt,value
2018-08-06T00:01:48.519Z,48.12
2018-08-06T00:04:16.662Z,47.44
2018-08-06T00:06:44.846Z,48.13
2018-08-06T00:09:13.251Z,48.60
2018-08-06T00:11:41.750Z,47.86
2018-08-06T00:14:09.856Z,48.31
2018-08-06T00:16:38.001Z,48.01
2018-08-06T00:19:06.352Z,48.08
2018-08-06T00:21:34.586Z,49.04
2018-08-06T00:24:02.721Z,48.85
2018-08-06T00:26:30.823Z,48.39
2018-08-06T00:28:58.976Z,49.75
2018-08-06T00:31:27.124Z,48.86
2018-08-06T00:33:55.419Z,48.97
2018-08-06T00:36:23.615Z,48.83
2018-08-06T00:38:51.722Z,49.25
2018-08-06T00:41:19.878Z,50.00
2018-08-06T00:43:48.112Z,49.15
2018-08-06T00:46:16.210Z,49.71
2018-08-06T00:48:44.519Z,50.43
2018-08-06T00:51:12.855Z,49.94
2018-08-06T00:53:41.070Z,50.12
2018-08-06T00:56:09.472Z,50.26
2018-08-06T00:58:37.811Z,50.45
2018-08-06T01:01:06.169Z,50.59
2018-08-06T01:03:34.277Z,49.90
2018-08-06T01:06:02.522Z,50.28
2018-08-06T01:08:30.972Z,50.44
2018-08-06T01:10:59.290Z,50.54
2018-08-06T01:13:27.405Z,50.39
2018-08-06T01:15:55.529Z,50.63
2018-08-06T01:18:23.739Z,50.41
2018-08-06T01:20:52.378Z,50.68
2018-08-06T01:23:20.469Z,50.55
2018-08-06T01:25:48.881Z,50.74
2018-08-06T01:28:17.021Z,51.57
2018-08-06T01:30:45.125Z,51.57
2018-08-06T01:33:13.836Z,51.08
2018-08-06T01:35:42.027Z,51.51
2018-08-06T01:38:10.563Z,50.91
2018-08-06T01:40:38.750Z,51.74
2018-08-06T01:43:06.928Z,51.99
2018-08-06T01:45:35.257Z,52.37
2018-08-06T01:48:03.580Z,52.06
2018-08-06T01:50:31.714Z,52.41
2018-08-06T01:52:59.895Z,52.45
2018-08-06T01:55:28.037Z,51.73
2018-08-06T01:57:56.195Z,51.94
2018-08-06T02:00:24.512Z,52.04
2018-08-06T02:02:52.649Z,51.71
2018-08-06T02:05:20.751Z,52.64
2018-08-06T02:07:48.893Z,52.65
2018-08-06T02:10:17.276Z,52.40
2018-08-06T02:12:45.681Z,52.55
2018-08-06T02:15:14.055Z,52.38
2018-08-06T02:17:42.263Z,52.92
2018-08-06T02:20:15.175Z,52.61
2018-08-06T02:22:44.151Z,52.97
2018-08-06T02:25:12.290Z,53.16
2018-08-06T02:27:40.838Z,53.39
2018-08-06T02:30:11.115Z,53.51
2018-08-06T02:32:39.578Z,52.94
2018-08-06T02:35:08.747Z,52.90
2018-08-06T02:37:36.916Z,53.51
2018-08-06T02:40:06.522Z,53.10
2018-08-06T02:42:34.684Z,53.18
2018-08-06T02:45:03.132Z,53.32
2018-08-06T02:47:31.257Z,53.28
2018-08-06T02:49:59.426Z,53.29
2018-08-06T02:52:27.697Z,53.57
2018-08-06T02:54:55.844Z,53.57
2018-08-06T02:57:23.963Z,54.27
2018-08-06T02:59:52.389Z,53.47
2018-08-06T03:02:20.733Z,54.50
2018-08-06T03:04:48.995Z,54.43
2018-08-06T03:07:17.190Z,54.51
2018-08-06T03:09:46.022Z,54.99
2018-08-06T03:12:14.180Z,54.94
2018-08-06T03:14:42.297Z,53.90
2018-08-06T03:17:10.454Z,53.93
2018-08-06T03:19:38.590Z,55.08
2018-08-06T03:22:07.208Z,54.36
2018-08-06T03:24:35.313Z,55.25
2018-08-06T03:27:03.607Z,54.67
2018-08-06T03:29:32.260Z,55.06
2018-08-06T03:32:00.354Z,54.71
2018-08-06T03:34:28.709Z,54.98
2018-08-06T03:36:57.133Z,54.51
2018-08-06T03:39:25.223Z,55.61
2018-08-06T03:41:53.359Z,55.25
2018-08-06T03:44:21.511Z,55.45
2018-08-06T03:46:49.717Z,55.52
2018-08-06T03:49:17.959Z,55.58
2018-08-06T03:51:46.165Z,55.86
2018-08-06T03:54:14.486Z,55.40
2018-08-06T03:56:42.580Z,55.24
2018-08-06T03:59:11.203Z,55.98
2018-08-06T04:01:39.560Z,55.95
2018-08-06T04:04:07.819Z,56.07
2018-08-06T04:06:36.000Z,55.85
2018-08-06T04:09:05.745Z,55.84
2018-08-06T04:11:34.107Z,56.20
2018-08-06T04:14:02.290Z,55.46
2018-08-06T04:16:34.598Z,55.87
2018-08-06T04:19:02.831Z,55.72
2018-08-06T04:21:31.019Z,55.45
2018-08-06T04:23:59.301Z,56.32
2018-08-06T04:26:27.676Z,56.36
2018-08-06T04:28:55.962Z,55.65
2018-08-06T04:31:24.221Z,55.81
2018-08-06T04:33:52.411Z,56.19
2018-08-06T04:36:20.519Z,55.78
2018-08-06T04:38:48.806Z,56.40
2018-08-06T04:41:16.931Z,56.61
2018-08-06T04:43:45.032Z,56.90
2018-08-06T04:46:13.131Z,55.99
2018-08-06T04:48:41.231Z,56.79
2018-08-06T04:51:09.423Z,56.86
2018-08-06T04:53:37.634Z,56.83
2018-08-06T04:56:05.798Z,56.79
2018-08-06T04:58:34.023Z,55.84
2018-08-06T05:01:02.530Z,57.35
2018-08-06T05:03:30.687Z,56.54
2018-08-06T05:05:58.797Z,56.48
2018-08-06T05:08:26.975Z,55.82
2018-08-06T05:10:55.127Z,56.50
2018-08-06T05:13:23.275Z,55.66
2018-08-06T05:15:51.640Z,56.41
2018-08-06T05:18:20.368Z,55.53
2018-08-06T05:20:48.562Z,55.40
2018-08-06T05:23:16.676Z,55.81
2018-08-06T05:25:44.796Z,55.40
2018-08-06T05:28:12.940Z,55.11
2018-08-06T05:30:41.231Z,56.35
2018-08-06T05:33:09.311Z,55.84
2018-08-06T05:35:38.486Z,55.89
2018-08-06T05:38:06.642Z,55.73
2018-08-06T05:40:34.911Z,55.74
2018-08-06T05:43:04.580Z,54.52
2018-08-06T05:45:32.887Z,54.43
2018-08-06T05:48:01.059Z,55.21
2018-08-06T05:50:29.219Z,55.12
2018-08-06T05:52:57.426Z,54.38
2018-08-06T05:55:25.549Z,54.35
2018-08-06T05:57:54.016Z,55.05
2018-08-06T06:00:22.283Z,54.14
2018-08-06T06:02:50.417Z,54.33
2018-08-06T06:05:18.839Z,54.56
2018-08-06T06:07:47.120Z,54.88
2018-08-06T06:10:15.822Z,53.86
2018-08-06T06:12:44.074Z,53.83
2018-08-06T06:15:14.146Z,54.48
2018-08-06T06:17:43.069Z,54.03
2018-08-06T06:20:11.206Z,54.35
2018-08-06T06:22:39.365Z,53.75
2018-08-06T06:25:09.700Z,54.27
2018-08-06T06:27:38.042Z,53.64
2018-08-06T06:30:07.614Z,53.53
2018-08-06T06:32:36.275Z,53.16
2018-08-06T06:35:04.668Z,54.34
2018-08-06T06:37:32.815Z,53.10
2018-08-06T06:40:04.614Z,53.93
2018-08-06T06:42:32.818Z,53.78
2018-08-06T06:45:01.176Z,53.15
2018-08-06T06:47:29.456Z,53.90
2018-08-06T06:49:57.875Z,53.68
2018-08-06T06:52:26.148Z,52.81
2018-08-06T06:54:54.651Z,52.55
2018-08-06T06:57:22.806Z,53.52
2018-08-06T06:59:51.234Z,53.62
2018-08-06T07:02:19.358Z,53.06
2018-08-06T07:04:47.575Z,53.04
2018-08-06T07:07:15.960Z,53.22
2018-08-06T07:09:44.075Z,53.32
2018-08-06T07:12:12.252Z,52.77
2018-08-06T07:14:40.535Z,52.20
2018-08-06T07:17:08.662Z,52.17
2018-08-06T07:19:36.835Z,52.75
2018-08-06T07:22:06.267Z,52.89
2018-08-06T07:24:34.730Z,52.08
2018-08-06T07:27:03.084Z,52.27
2018-08-06T07:29:31.264Z,51.91
2018-08-06T07:32:00.284Z,51.77
2018-08-06T07:34:28.423Z,51.64
2018-08-06T07:36:57.259Z,51.53
2018-08-06T07:39:25.788Z,52.20
2018-08-06T07:41:53.890Z,51.59
2018-08-06T07:44:22.252Z,51.92
2018-08-06T07:46:50.375Z,51.98
2018-08-06T07:49:18.618Z,51.31
2018-08-06T07:51:46.793Z,51.60
2018-08-06T07:54:14.912Z,51.43
2018-08-06T07:56:43.557Z,51.74
2018-08-06T07:59:11.778Z,51.26
2018-08-06T08:01:40.200Z,51.71
2018-08-06T08:04:08.816Z,51.59
2018-08-06T08:06:37.007Z,50.61
2018-08-06T08:09:08.005Z,50.58
2018-08-06T08:11:36.255Z,50.92
2018-08-06T08:14:04.523Z,50.56
2018-08-06T08:16:32.638Z,51.24
2018-08-06T08:19:00.987Z,50.42
2018-08-06T08:21:29.240Z,50.31
2018-08-06T08:23:57.475Z,50.97
2018-08-06T08:26:25.937Z,50.33
2018-08-06T08:28:54.171Z,50.37
2018-08-06T08:31:22.395Z,50.26
2018-08-06T08:33:50.697Z,50.47
2018-08-06T08:36:18.801Z,50.03
2018-08-06T08:38:46.920Z,50.37
2018-08-06T08:41:15.063Z,49.83
2018-08-06T08:43:43.392Z,50.11
2018-08-06T08:46:11.582Z,49.84
2018-08-06T08:48:39.851Z,50.02
2018-08-06T08:51:07.968Z,50.01
2018-08-06T08:53:36.175Z,50.55
2018-08-06T08:56:04.306Z,49.66
2018-08-06T08:58:32.868Z,49.63
2018-08-06T09:01:00.927Z,49.52
2018-08-06T09:03:30.774Z,49.18
2018-08-06T09:05:59.016Z,49.47
2018-08-06T09:08:27.168Z,49.22
2018-08-06T09:10:55.285Z,49.36
2018-08-06T09:13:23.811Z,50.08
2018-08-06T09:15:51.931Z,50.32
2018-08-06T09:18:20.530Z,50.07
2018-08-06T09:20:48.706Z,49.15
2018-08-06T09:23:16.922Z,49.11
2018-08-06T09:25:45.048Z,49.96
2018-08-06T09:28:13.208Z,48.88
2018-08-06T09:30:41.330Z,49.39
2018-08-06T09:33:09.618Z,49.39
2018-08-06T09:35:38.050Z,49.41
2018-08-06T09:38:06.835Z,49.61
2018-08-06T09:40:34.994Z,49.05
2018-08-06T09:43:03.267Z,49.70
2018-08-06T09:45:31.410Z,49.27
2018-08-06T09:47:59.534Z,48.99
2018-08-06T09:50:27.727Z,49.81
2018-08-06T09:52:55.931Z,48.62
2018-08-06T09:55:26.262Z,49.54
2018-08-06T09:57:54.598Z,48.76
2018-08-06T10:00:28.468Z,49.90
2018-08-06T10:03:00.827Z,49.29
2018-08-06T10:05:30.093Z,49.03
2018-08-06T10:07:58.448Z,49.87
2018-08-06T10:10:26.511Z,49.57
2018-08-06T10:12:54.769Z,48.75
2018-08-06T10:15:23.286Z,48.79
2018-08-06T10:17:53.056Z,49.23
2018-08-06T10:20:23.396Z,49.17
2018-08-06T10:22:51.482Z,49.41
2018-08-06T10:25:19.603Z,48.28
2018-08-06T10:27:48.251Z,49.53
2018-08-06T10:30:19.581Z,49.12
2018-08-06T10:32:47.804Z,47.94
2018-08-06T10:35:17.404Z,48.89
2018-08-06T10:37:47.143Z,49.23
2018-08-06T10:40:17.586Z,48.81
2018-08-06T10:42:46.243Z,49.11
2018-08-06T10:45:16.094Z,48.68
2018-08-06T10:47:44.300Z,49.12
2018-08-06T10:50:12.832Z,48.48
2018-08-06T10:52:41.188Z,48.98
2018-08-06T10:55:10.184Z,48.67
2018-08-06T10:57:39.291Z,48.88
2018-08-06T11:00:11.314Z,49.26
2018-08-06T11:02:39.457Z,48.70
2018-08-06T11:05:08.919Z,49.03
2018-08-06T11:07:37.496Z,48.30
2018-08-06T11:10:08.124Z,49.04
2018-08-06T11:12:36.903Z,48.91
2018-08-06T11:15:07.116Z,48.91
2018-08-06T11:17:35.311Z,48.82
2018-08-06T11:20:03.451Z,48.18
2018-08-06T11:22:31.665Z,47.86
2018-08-06T11:25:00.008Z,47.79
2018-08-06T11:27:28.191Z,48.77
2018-08-06T11:29:56.459Z,47.86
2018-08-06T11:32:24.623Z,47.99
2018-08-06T11:34:52.750Z,47.79
2018-08-06T11:37:20.980Z,48.74
2018-08-06T11:39:49.127Z,48.74
2018-08-06T11:42:17.324Z,48.21
2018-08-06T11:44:45.464Z,48.18
2018-08-06T11:47:13.635Z,48.17
2018-08-06T11:49:41.895Z,48.66
2018-08-06T11:52:09.974Z,48.14
2018-08-06T11:54:38.224Z,48.91
2018-08-06T11:57:06.319Z,48.10
2018-08-06T11:59:34.501Z,48.82
2018-08-06T12:02:03.000Z,48.58
2018-08-06T12:04:31.363Z,47.69
2018-08-06T12:07:00.071Z,47.61
2018-08-06T12:09:28.200Z,48.48
2018-08-06T12:11:56.365Z,47.57
2018-08-06T12:14:24.640Z,47.89
2018-08-06T12:16:52.951Z,47.69
2018-08-06T12:19:21.065Z,47.80
2018-08-06T12:21:49.499Z,48.37
2018-08-06T12:24:17.693Z,48.22
2018-08-06T12:26:45.937Z,47.64
2018-08-06T12:29:14.071Z,48.28
2018-08-06T12:31:42.663Z,48.44
2018-08-06T12:34:10.865Z,47.76
2018-08-06T12:36:39.387Z,47.72
2018-08-06T12:39:11.425Z,47.29
2018-08-06T12:41:39.643Z,47.45
2018-08-06T12:44:09.695Z,48.45
2018-08-06T12:46:38.040Z,48.08
2018-08-06T12:49:06.752Z,47.60
2018-08-06T12:51:35.000Z,48.05
2018-08-06T12:54:04.414Z,47.67
2018-08-06T12:56:32.839Z,47.82
2018-08-06T12:59:00.982Z,48.20
2018-08-06T13:01:29.142Z,47.96
2018-08-06T13:03:57.427Z,47.84
2018-08-06T13:06:25.563Z,47.87
2018-08-06T13:08:53.700Z,47.04
2018-08-06T13:11:21.927Z,47.77
2018-08-06T13:13:50.090Z,47.13
2018-08-06T13:16:18.697Z,47.02
2018-08-06T13:18:46.827Z,48.20
2018-08-06T13:21:15.220Z,47.24
2018-08-06T13:23:43.401Z,46.80
2018-08-06T13:26:11.586Z,47.45
2018-08-06T13:28:39.902Z,47.42
2018-08-06T13:31:08.012Z,46.98
2018-08-06T13:33:36.197Z,47.35
2018-08-06T13:36:04.369Z,47.65
2018-08-06T13:38:32.512Z,47.57
2018-08-06T13:41:00.713Z,48.06
2018-08-06T13:43:28.844Z,47.45
2018-08-06T13:45:56.980Z,47.79
2018-08-06T13:48:25.162Z,47.87
2018-08-06T13:50:53.398Z,47.40
2018-08-06T13:53:21.538Z,47.71
2018-08-06T13:55:49.664Z,48.03
2018-08-06T13:58:17.903Z,48.43
2018-08-06T14:00:46.023Z,48.40
2018-08-06T14:03:14.366Z,47.36
2018-08-06T14:05:42.579Z,47.92
2018-08-06T14:08:10.810Z,47.25
2018-08-06T14:10:39.009Z,47.68
2018-08-06T14:13:07.271Z,48.33
2018-08-06T14:15:35.734Z,46.80
2018-08-06T14:18:04.077Z,47.78
2018-08-06T14:20:32.262Z,47.40
2018-08-06T14:23:00.355Z,47.61
2018-08-06T14:25:28.455Z,47.81
2018-08-06T14:27:56.627Z,47.50
2018-08-06T14:30:24.821Z,47.08
2018-08-06T14:32:53.032Z,47.00
2018-08-06T14:35:21.154Z,47.91
2018-08-06T14:37:49.866Z,47.36
2018-08-06T14:40:19.207Z,48.30
2018-08-06T14:42:47.767Z,47.38
2018-08-06T14:45:16.259Z,47.82
2018-08-06T14:47:44.472Z,48.17
2018-08-06T14:50:14.130Z,47.37
2018-08-06T14:52:42.299Z,47.63
2018-08-06T14:55:10.427Z,47.20
2018-08-06T14:57:39.926Z,47.25
2018-08-06T15:00:12.499Z,46.56
2018-08-06T15:02:40.956Z,46.35
2018-08-06T15:05:09.518Z,47.55
2018-08-06T15:07:38.011Z,46.95
2018-08-06T15:10:07.338Z,47.28
2018-08-06T15:12:35.755Z,47.22
2018-08-06T15:15:04.256Z,46.71
2018-08-06T15:17:32.339Z,47.09
2018-08-06T15:20:00.613Z,46.96
2018-08-06T15:22:28.785Z,47.11
2018-08-06T15:24:56.912Z,46.09
2018-08-06T15:27:25.167Z,46.43
2018-08-06T15:29:53.831Z,45.99
2018-08-06T15:32:22.890Z,46.43
2018-08-06T15:34:52.115Z,46.75
2018-08-06T15:37:20.316Z,46.97
2018-08-06T15:39:48.448Z,46.40
2018-08-06T15:42:16.631Z,46.78
2018-08-06T15:44:44.907Z,46.52
2018-08-06T15:47:14.308Z,46.38
2018-08-06T15:49:42.492Z,46.39
2018-08-06T15:52:11.011Z,47.10
2018-08-06T15:54:39.307Z,46.48
2018-08-06T15:57:07.549Z,46.81
2018-08-06T15:59:35.811Z,46.18
2018-08-06T16:02:04.163Z,47.43
2018-08-06T16:04:32.495Z,46.03
2018-08-06T16:07:00.832Z,45.49
2018-08-06T16:09:29.129Z,45.98
2018-08-06T16:11:57.236Z,46.24
2018-08-06T16:14:25.696Z,46.78
2018-08-06T16:16:54.796Z,47.23
2018-08-06T16:19:23.296Z,47.54
2018-08-06T16:21:51.913Z,46.82
2018-08-06T16:24:20.710Z,46.97
2018-08-06T16:26:49.172Z,46.67
2018-08-06T16:29:17.372Z,47.79
2018-08-06T16:31:45.691Z,47.24
2018-08-06T16:34:15.255Z,46.96
2018-08-06T16:36:43.351Z,47.94
2018-08-06T16:39:13.328Z,47.21
2018-08-06T16:41:41.603Z,46.50
2018-08-06T16:44:10.292Z,47.61
2018-08-06T16:46:38.458Z,46.86
2018-08-06T16:49:07.158Z,46.60
2018-08-06T16:51:35.546Z,47.64
2018-08-06T16:54:04.394Z,47.03
2018-08-06T16:56:32.707Z,46.33
2018-08-06T16:59:01.024Z,46.55
2018-08-06T17:01:29.282Z,47.22
2018-08-06T17:03:57.734Z,47.84
2018-08-06T17:06:26.053Z,47.17
2018-08-06T17:08:54.295Z,47.50
2018-08-06T17:11:22.538Z,47.47
2018-08-06T17:13:50.819Z,48.12
2018-08-06T17:16:19.202Z,47.23
2018-08-06T17:18:47.656Z,48.07
2018-08-06T17:21:15.924Z,47.21
2018-08-06T17:23:44.208Z,48.04
2018-08-06T17:26:12.388Z,48.06
2018-08-06T17:28:40.916Z,47.18
2018-08-06T17:31:09.232Z,47.55
2018-08-06T17:33:37.452Z,47.55
2018-08-06T17:36:06.903Z,47.72
2018-08-06T17:38:35.206Z,47.52
2018-08-06T17:41:03.471Z,47.58
2018-08-06T17:43:31.733Z,48.24
2018-08-06T17:45:59.993Z,47.58
2018-08-06T17:48:28.252Z,48.48
2018-08-06T17:50:56.570Z,48.18
2018-08-06T17:53:24.825Z,47.72
2018-08-06T17:55:53.082Z,47.74
2018-08-06T17:58:21.777Z,47.94
2018-08-06T18:00:49.893Z,48.90
2018-08-06T18:03:18.164Z,47.76
2018-08-06T18:05:46.622Z,47.68
2018-08-06T18:08:15.103Z,48.28
2018-08-06T18:10:43.399Z,48.92
2018-08-06T18:13:11.574Z,48.09
2018-08-06T18:15:40.046Z,47.81
2018-08-06T18:18:08.422Z,48.42
2018-08-06T18:20:36.833Z,47.67
2018-08-06T18:23:05.272Z,48.51
2018-08-06T18:25:34.076Z,47.87
2018-08-06T18:28:02.465Z,48.20
2018-08-06T18:30:30.881Z,47.93
2018-08-06T18:32:59.123Z,48.89
2018-08-06T18:35:27.272Z,48.97
2018-08-06T18:37:55.508Z,48.76
2018-08-06T18:40:23.922Z,48.05
2018-08-06T18:42:52.187Z,47.94
2018-08-06T18:45:21.693Z,47.88
2018-08-06T18:47:51.019Z,49.06
2018-08-06T18:50:19.846Z,48.98
2018-08-06T18:52:49.087Z,49.20
2018-08-06T18:55:17.617Z,48.08
2018-08-06T18:57:46.103Z,49.05
2018-08-06T19:00:22.468Z,48.92
2018-08-06T19:02:50.784Z,48.18
2018-08-06T19:05:18.909Z,48.56
2018-08-06T19:07:47.047Z,49.31
2018-08-06T19:10:15.300Z,48.54
2018-08-06T19:12:48.886Z,49.19
2018-08-06T19:15:17.213Z,49.02
2018-08-06T19:17:50.801Z,49.16
2018-08-06T19:20:19.612Z,48.05
2018-08-06T19:22:47.811Z,47.83
2018-08-06T19:25:21.469Z,48.36
2018-08-06T19:27:49.611Z,48.76
2018-08-06T19:30:17.769Z,48.88
2018-08-06T19:32:46.119Z,48.14
2018-08-06T19:35:14.600Z,49.00
2018-08-06T19:37:47.363Z,48.19
2018-08-06T19:40:15.888Z,48.76
2018-08-06T19:42:49.526Z,48.99
2018-08-06T19:45:17.872Z,48.82
2018-08-06T19:47:46.295Z,48.21
2018-08-06T19:50:20.086Z,48.11
2018-08-06T19:52:48.770Z,47.55
2018-08-06T19:55:22.385Z,48.30
2018-08-06T19:57:51.023Z,48.70
2018-08-06T20:00:21.231Z,47.47
2018-08-06T20:02:49.512Z,48.60
2018-08-06T20:05:17.783Z,48.69
2018-08-06T20:07:46.001Z,47.92
2018-08-06T20:10:15.088Z,48.33
2018-08-06T20:12:43.467Z,47.95
2018-08-06T20:15:13.931Z,48.60
2018-08-06T20:17:42.372Z,47.81
2018-08-06T20:20:11.406Z,47.96
2018-08-06T20:22:39.758Z,48.78
2018-08-06T20:25:14.305Z,48.89
2018-08-06T20:27:42.519Z,48.57
2018-08-06T20:30:11.939Z,47.71
2018-08-06T20:32:40.407Z,48.55
2018-08-06T20:35:11.072Z,48.12
2018-08-06T20:37:39.901Z,47.36
2018-08-06T20:40:09.190Z,47.61
2018-08-06T20:42:38.642Z,47.93
2018-08-06T20:45:10.380Z,47.94
2018-08-06T20:47:42.050Z,47.96
2018-08-06T20:50:15.210Z,48.46
2018-08-06T20:52:43.729Z,47.34
2018-08-06T20:55:12.599Z,47.45
2018-08-06T20:57:41.303Z,47.99
2018-08-06T21:00:12.923Z,47.50
2018-08-06T21:02:41.273Z,47.91
2018-08-06T21:05:09.623Z,47.44
2018-08-06T21:07:38.144Z,47.10
2018-08-06T21:10:07.723Z,47.68
2018-08-06T21:12:36.076Z,47.21
2018-08-06T21:15:04.524Z,46.55
2018-08-06T21:17:32.795Z,47.21
2018-08-06T21:20:00.983Z,47.50
2018-08-06T21:22:29.093Z,47.17
2018-08-06T21:24:57.213Z,47.07
2018-08-06T21:27:25.455Z,46.57
2018-08-06T21:29:53.591Z,46.38
2018-08-06T21:32:21.834Z,47.32
2018-08-06T21:34:50.055Z,46.09
2018-08-06T21:37:18.253Z,47.42
2018-08-06T21:39:46.560Z,47.00
2018-08-06T21:42:14.959Z,46.99
2018-08-06T21:44:43.302Z,46.12
2018-08-06T21:47:11.555Z,46.04
2018-08-06T21:49:39.831Z,46.99
2018-08-06T21:52:08.035Z,47.39
2018-08-06T21:54:36.186Z,47.38
2018-08-06T21:57:04.495Z,46.61
2018-08-06T21:59:33.237Z,46.31
2018-08-06T22:02:01.595Z,46.88
2018-08-06T22:04:30.209Z,47.71
2018-08-06T22:06:58.612Z,46.36
2018-08-06T22:09:26.722Z,47.07
2018-08-06T22:11:55.015Z,47.60
2018-08-06T22:14:23.239Z,46.52
2018-08-06T22:16:52.432Z,46.72
2018-08-06T22:19:20.745Z,47.20
2018-08-06T22:21:48.940Z,47.91
2018-08-06T22:24:17.270Z,47.02
2018-08-06T22:26:45.998Z,47.96
2018-08-06T22:29:14.977Z,47.90
2018-08-06T22:31:43.234Z,47.05
2018-08-06T22:34:11.625Z,47.90
2018-08-06T22:36:40.132Z,47.30
2018-08-06T22:39:10.161Z,47.54
2018-08-06T22:41:38.384Z,47.28
2018-08-06T22:44:06.712Z,47.85
2018-08-06T22:46:35.060Z,47.82
2018-08-06T22:49:03.435Z,47.93
2018-08-06T22:51:31.919Z,47.32
2018-08-06T22:54:00.462Z,48.17
2018-08-06T22:56:28.813Z,47.84
2018-08-06T22:58:56.940Z,47.24
2018-08-06T23:01:25.248Z,47.83
2018-08-06T23:03:53.915Z,47.36
2018-08-06T23:06:22.126Z,47.86
2018-08-06T23:08:50.329Z,48.13
2018-08-06T23:11:18.755Z,48.74
2018-08-06T23:13:46.945Z,48.00
2018-08-06T23:16:15.427Z,49.33
2018-08-06T23:18:43.809Z,48.40
2018-08-06T23:21:12.072Z,49.32
2018-08-06T23:23:40.320Z,49.67
2018-08-06T23:26:08.596Z,49.86
2018-08-06T23:28:36.833Z,49.13
2018-08-06T23:31:05.316Z,50.25
2018-08-06T23:33:33.944Z,49.39
2018-08-06T23:36:02.167Z,50.03
2018-08-06T23:38:30.443Z,50.24
2018-08-06T23:40:58.898Z,50.45
2018-08-06T23:43:27.297Z,50.24
2018-08-06T23:45:55.544Z,51.28
2018-08-06T23:48:23.763Z,50.06
2018-08-06T23:50:51.898Z,50.53
2018-08-06T23:53:20.388Z,50.75
2018-08-06T23:55:48.718Z,51.23
2018-08-06T23:58:17.087Z,51.67
